sensor_id;sensor_type;location;lat;lon;timestamp;pressure;altitude;pressure_sealevel;temperature;humidity
15558;BME280;7880;50.110;9.372;2023-01-16T00:00:12;3.625053674686933;;;3.687;100.0
15558;BME280;7880;50.110;9.372;2023-01-16T00:05:18;3.6048860614246223;;;3.687;100.0
15558;BME280;7880;50.110;9.372;2023-01-16T00:10:20;3.7309337207116187;;;3.812;100.0
15558;BME280;7880;50.110;9.372;2023-01-16T00:15:26;3.5393413504818456;;;3.687;100.0
15558;BME280;7880;50.110;9.372;2023-01-16T00:20:26;3.6200117709347976;;;3.75;100.0
15558;BME280;7880;50.110;9.372;2023-01-16T00:25:29;3.7107660830020905;;;3.812;100.0
15558;BME280;7880;50.110;9.372;2023-01-16T00:30:32;3.665388915181393;;;3.812;100.0
15558;BME280;7880;50.110;9.372;2023-01-16T00:35:36;3.5847184528189246;;;3.687;100.0
15558;BME280;7880;50.110;9.372;2023-01-16T00:40:40;3.56455084886984;;;3.687;100.0
15558;BME280;7880;50.110;9.372;2023-01-16T00:45:46;3.549425148963928;;;3.687;100.0
15558;BME280;7880;50.110;9.372;2023-01-16T00:50:48;3.6300955787301064;;;3.75;100.0
15558;BME280;7880;50.110;9.372;2023-01-16T00:55:57;3.5443832495773675;;;3.75;100.0
15558;BME280;7880;50.110;9.372;2023-01-16T01:00:58;3.665388915181393;;;3.75;100.0
15558;BME280;7880;50.110;9.372;2023-01-16T01:06:05;3.529257553163916;;;3.687;100.0
15558;BME280;7880;50.110;9.372;2023-01-16T01:11:07;3.6200117709347976;;;3.75;100.0
15558;BME280;7880;50.110;9.372;2023-01-16T01:16:10;3.6200117709347976;;;3.75;100.0
15558;BME280;7880;50.110;9.372;2023-01-16T01:21:12;3.6704308215528725;;;3.75;100.0
15558;BME280;7880;50.110;9.372;2023-01-16T01:26:17;3.7107660830020905;;;3.812;100.0
15558;BME280;7880;50.110;9.372;2023-01-16T01:31:20;3.7561432743968908;;;3.875;100.0
15558;BME280;7880;50.110;9.372;2023-01-16T01:36:24;3.6805146351689473;;;3.812;100.0
15558;BME280;7880;50.110;9.372;2023-01-16T01:41:30;3.5746346502623054;;;3.75;100.0
15558;BME280;7880;50.110;9.372;2023-01-16T01:46:42;3.468754793703556;;;3.625;100.0
15558;BME280;7880;50.110;9.372;2023-01-16T01:51:39;3.56455084886984;;;3.687;100.0
15558;BME280;7880;50.110;9.372;2023-01-16T01:56:44;3.6805146351689473;;;3.75;100.0
15558;BME280;7880;50.110;9.372;2023-01-16T02:01:44;3.5191737570101393;;;3.687;100.0
15558;BME280;7880;50.110;9.372;2023-01-16T02:06:51;3.614969867473701;;;3.687;100.0
15558;BME280;7880;50.110;9.372;2023-01-16T02:11:55;3.6099279643036426;;;3.75;100.0
15558;BME280;7880;50.110;9.372;2023-01-16T02:24:23;3.5040480649622623;;;3.625;100.0
15558;BME280;7880;50.110;9.372;2023-01-16T02:29:19;3.4637128989736086;;;3.562;100.0
15558;BME280;7880;50.110;9.372;2023-01-16T02:34:27;3.473796688724542;;;3.625;100.0
15558;BME280;7880;50.110;9.372;2023-01-16T02:39:22;3.529257553163916;;;3.625;100.0
15558;BME280;7880;50.110;9.372;2023-01-16T02:44:31;3.6048860614246223;;;3.75;100.0
15558;BME280;7880;50.110;9.372;2023-01-16T02:49:11;3.5191737570101393;;;3.687;100.0
15558;BME280;7880;50.110;9.372;2023-01-16T02:59:16;3.6805146351689473;;;3.812;100.0
15558;BME280;7880;50.110;9.372;2023-01-16T03:04:40;3.635137483064318;;;3.812;100.0
15558;BME280;7880;50.110;9.372;2023-01-16T03:09:33;3.5847184528189246;;;3.75;100.0
15558;BME280;7880;50.110;9.372;2023-01-16T03:14:36;3.554467048641527;;;3.687;100.0
15558;BME280;7880;50.110;9.372;2023-01-16T03:19:43;3.725891810847679;;;3.812;100.0
15558;BME280;7880;50.110;9.372;2023-01-16T03:24:57;3.554467048641527;;;3.687;100.0
15558;BME280;7880;50.110;9.372;2023-01-16T03:29:46;3.56455084886984;;;3.687;100.0
15558;BME280;7880;50.110;9.372;2023-01-16T03:34:50;3.5897603545337917;;;3.75;100.0
15558;BME280;7880;50.110;9.372;2023-01-16T03:39:53;3.665388915181393;;;3.75;100.0
15558;BME280;7880;50.110;9.372;2023-01-16T03:44:56;3.5443832495773675;;;3.687;100.0
15558;BME280;7880;50.110;9.372;2023-01-16T03:50:11;3.4435453229642006;;;3.625;100.0
15558;BME280;7880;50.110;9.372;2023-01-16T03:55:15;3.5342994516773616;;;3.625;100.0
15558;BME280;7880;50.110;9.372;2023-01-16T04:00:14;3.5998441588366403;;;3.687;100.0
15558;BME280;7880;50.110;9.372;2023-01-16T04:05:15;3.6401793876895683;;;3.812;100.0
15558;BME280;7880;50.110;9.372;2023-01-16T04:10:19;3.614969867473701;;;3.75;100.0
15558;BME280;7880;50.110;9.372;2023-01-16T04:15:25;3.6956403577758463;;;3.812;100.0
15558;BME280;7880;50.110;9.372;2023-01-16T04:20:25;3.438503429689445;;;3.625;100.0
15558;BME280;7880;50.110;9.372;2023-01-16T04:25:27;3.4435453229642006;;;3.562;100.0
15558;BME280;7880;50.110;9.372;2023-01-16T04:30:32;3.5948022565396966;;;3.625;100.0
15558;BME280;7880;50.110;9.372;2023-01-16T04:35:37;3.3275818512775004;;;3.5;100.0
15558;BME280;7880;50.110;9.372;2023-01-16T04:40:47;3.3679169544018803;;;3.437;100.0
15558;BME280;7880;50.110;9.372;2023-01-16T04:45:47;3.4435453229642006;;;3.562;100.0
15558;BME280;7880;50.110;9.372;2023-01-16T04:50:51;3.3729588436021003;;;3.437;100.0
15558;BME280;7880;50.110;9.372;2023-01-16T04:55:57;3.181367258593673;;;3.312;100.0
15558;BME280;7880;50.110;9.372;2023-01-16T05:01:02;3.2620373484271115;;;3.312;100.0
15558;BME280;7880;50.110;9.372;2023-01-16T05:06:14;3.181367258593673;;;3.25;100.0
15558;BME280;7880;50.110;9.372;2023-01-16T05:11:18;3.332623738149414;;;3.375;100.0
15558;BME280;7880;50.110;9.372;2023-01-16T05:16:21;3.231786056008423;;;3.312;100.0
15558;BME280;7880;50.110;9.372;2023-01-16T05:21:26;3.206576653663069;;;3.25;100.0
15558;BME280;7880;50.110;9.372;2023-01-16T05:26:30;3.241869818983832;;;3.312;100.0
15558;BME280;7880;50.110;9.372;2023-01-16T05:31:42;3.241869818983832;;;3.312;100.0
15558;BME280;7880;50.110;9.372;2023-01-16T05:36:41;3.332623738149414;;;3.375;100.0
15558;BME280;7880;50.110;9.372;2023-01-16T05:41:54;3.2620373484271115;;;3.312;100.0
15558;BME280;7880;50.110;9.372;2023-01-16T05:46:59;3.2368279373506086;;;3.312;100.0
15558;BME280;7880;50.110;9.372;2023-01-16T05:52:06;3.1763253804529086;;;3.25;100.0
15558;BME280;7880;50.110;9.372;2023-01-16T05:57:11;3.0452366509474813;;;3.062;100.0
15558;BME280;7880;50.110;9.372;2023-01-16T06:02:21;3.0654041349887846;;;3.062;100.0
15558;BME280;7880;50.110;9.372;2023-01-16T06:07:20;3.0351529106730597;;;3.125;100.0
15558;BME280;7880;50.110;9.372;2023-01-16T06:12:25;3.1611997477768456;;;3.187;100.0
15558;BME280;7880;50.110;9.372;2023-01-16T06:17:30;3.1359903658041732;;;3.187;100.0
15558;BME280;7880;50.110;9.372;2023-01-16T06:22:35;3.1611997477768456;;;3.25;100.0
15558;BME280;7880;50.110;9.372;2023-01-16T06:27:39;3.1712835026031825;;;3.25;100.0
15558;BME280;7880;50.110;9.372;2023-01-16T06:32:47;3.1359903658041732;;;3.187;100.0
15558;BME280;7880;50.110;9.372;2023-01-16T06:37:50;3.040194780664751;;;3.125;100.0
15558;BME280;7880;50.110;9.372;2023-01-16T06:42:55;2.818352776352549;;;2.937;100.0
15558;BME280;7880;50.110;9.372;2023-01-16T06:47:59;2.994817961216904;;;3.062;100.0
15558;BME280;7880;50.110;9.372;2023-01-16T06:53:08;2.9998598288802896;;;3.062;100.0
15558;BME280;7880;50.110;9.372;2023-01-16T06:58:08;2.717515687929699;;;2.875;100.0
15558;BME280;7880;50.110;9.372;2023-01-16T07:03:13;2.8536457848036663;;;2.875;100.0
15558;BME280;7880;50.110;9.372;2023-01-16T07:08:17;2.818352776352549;;;2.812;100.0
15558;BME280;7880;50.110;9.372;2023-01-16T07:13:27;2.7931434933329;;;2.875;100.0
15558;BME280;7880;50.110;9.372;2023-01-16T07:25:30;2.6620553389191626;;;2.687;100.0
15558;BME280;7880;50.110;9.372;2023-01-16T07:30:30;2.5763439597154503;;;2.687;100.0
15558;BME280;7880;50.110;9.372;2023-01-16T07:36:08;2.646929795300821;;;2.625;100.0
15558;BME280;7880;50.110;9.372;2023-01-16T07:41:16;2.6065950251242613;;;2.625;100.0
15558;BME280;7880;50.110;9.372;2023-01-16T07:46:13;2.5057581811735874;;;2.5;100.0
15558;BME280;7880;50.110;9.372;2023-01-16T07:51:17;2.5208837003447115;;;2.562;100.0
15558;BME280;7880;50.110;9.372;2023-01-16T07:55:24;2.6620553389191626;;;2.75;100.0
15558;BME280;7880;50.110;9.372;2023-01-16T08:00:29;2.687264584103832;;;2.75;100.0
15558;BME280;7880;50.110;9.372;2023-01-16T08:05:35;2.7729760721558705;;;2.812;100.0
15558;BME280;7880;50.110;9.372;2023-01-16T08:10:43;2.722557539585978;;;2.875;100.0
15558;BME280;7880;50.110;9.372;2023-01-16T08:15:44;2.611636870377697;;;2.812;100.0
15558;BME280;7880;50.110;9.372;2023-01-16T08:20:49;2.616678715922171;;;2.687;100.0
15558;BME280;7880;50.110;9.372;2023-01-16T08:25:52;2.6721390361199155;;;2.75;100.0
15558;BME280;7880;50.110;9.372;2023-01-16T08:31:04;2.6015531801618637;;;2.687;100.0
15558;BME280;7880;50.110;9.372;2023-01-16T08:36:03;2.7780179270135705;;;2.875;100.0
15558;BME280;7880;50.110;9.372;2023-01-16T08:41:05;2.818352776352549;;;2.937;100.0
15558;BME280;7880;50.110;9.372;2023-01-16T08:53:01;2.8990225309098605;;;3.062;100.0
15558;BME280;7880;50.110;9.372;2023-01-16T08:58:08;2.9242318444885314;;;3.062;100.0
15558;BME280;7880;50.110;9.372;2023-01-16T09:03:08;3.0704460067267063;;;3.187;100.0
15558;BME280;7880;50.110;9.372;2023-01-16T09:08:12;2.94944116534316;;;3.125;100.0
15558;BME280;7880;50.110;9.372;2023-01-16T09:13:51;2.8788550852856134;;;3.062;100.0
15558;BME280;7880;50.110;9.372;2023-01-16T09:18:30;2.94944116534316;;;3.062;100.0
15558;BME280;7880;50.110;9.372;2023-01-16T09:23:33;2.979692359972978;;;3.187;100.0
15558;BME280;7880;50.110;9.372;2023-01-16T09:28:48;3.125906615052372;;;3.312;100.0
15558;BME280;7880;50.110;9.372;2023-01-16T09:33:47;3.0452366509474813;;;3.187;100.0
15558;BME280;7880;50.110;9.372;2023-01-16T09:38:45;2.94944116534316;;;3.125;100.0
15558;BME280;7880;50.110;9.372;2023-01-16T09:43:50;3.1158228654647244;;;3.25;100.0
15558;BME280;7880;50.110;9.372;2023-01-16T09:49:00;3.0099435650801754;;;3.125;100.0
15558;BME280;7880;50.110;9.372;2023-01-16T10:00:52;2.9443993005901574;;;3.062;100.0
15558;BME280;7880;50.110;9.372;2023-01-16T10:06:00;2.9847342267632486;;;3.062;100.0
15558;BME280;7880;50.110;9.372;2023-01-16T10:11:06;2.9292737080773805;;;3.0;100.0
15558;BME280;7880;50.110;9.372;2023-01-16T10:16:10;2.979692359972978;;;3.062;100.0
15558;BME280;7880;50.110;9.372;2023-01-16T10:21:22;2.9292737080773805;;;3.062;100.0
15558;BME280;7880;50.110;9.372;2023-01-16T10:26:14;2.979692359972978;;;3.062;100.0
15558;BME280;7880;50.110;9.372;2023-01-16T10:31:20;2.858687644317979;;;2.937;100.0
15558;BME280;7880;50.110;9.372;2023-01-16T10:36:26;2.6923064340138807;;;2.875;100.0
15558;BME280;7880;50.110;9.372;2023-01-16T10:49:31;2.657013490755344;;;2.812;100.0
15558;BME280;7880;50.110;9.372;2023-01-16T10:54:11;2.707431985490257;;;2.75;100.0
15558;BME280;7880;50.110;9.372;2023-01-16T10:59:15;2.5259255406504963;;;2.625;100.0
15558;BME280;7880;50.110;9.372;2023-01-16T11:04:20;2.4351724596752318;;;2.5;100.0
15558;BME280;7880;50.110;9.372;2023-01-16T11:09:24;2.7477668022329453;;;3.062;100.0
15558;BME280;7880;50.110;9.372;2023-01-16T11:21:24;2.3393776431679725;;;2.437;100.0
15558;BME280;7880;50.110;9.372;2023-01-16T11:26:26;2.354503133526305;;;2.312;100.0
15558;BME280;7880;50.110;9.372;2023-01-16T11:31:31;2.2940011878090445;;;2.25;100.0
15558;BME280;7880;50.110;9.372;2023-01-16T11:36:35;2.304084842518205;;;2.312;100.0
15558;BME280;7880;50.110;9.372;2023-01-16T11:41:37;2.3897959545487537;;;2.375;100.0
15558;BME280;7880;50.110;9.372;2023-01-16T11:46:41;2.3242521554289852;;;2.375;100.0
15558;BME280;7880;50.110;9.372;2023-01-16T11:51:52;2.243582931725541;;;2.25;100.0
15558;BME280;7880;50.110;9.372;2023-01-16T11:56:56;2.12762105318252;;;2.187;100.0
15558;BME280;7880;50.110;9.372;2023-01-16T12:02:44;2.2940011878090445;;;2.25;100.0
15558;BME280;7880;50.110;9.372;2023-01-16T12:07:37;2.2082901697838677;;;2.312;100.0
15558;BME280;7880;50.110;9.372;2023-01-16T12:19:51;2.480548988375813;;;2.5;100.0
15558;BME280;7880;50.110;9.372;2023-01-16T12:24:39;2.3192103267647326;;;2.437;100.0
15558;BME280;7880;50.110;9.372;2023-01-16T12:29:48;2.4049214536382353;;;2.5;100.0
15558;BME280;7880;50.110;9.372;2023-01-16T12:34:51;2.5360092221351804;;;2.562;100.0
15558;BME280;7880;50.110;9.372;2023-01-16T12:39:58;2.4603816393762825;;;2.562;100.0
15558;BME280;7880;50.110;9.372;2023-01-16T12:44:57;2.566260273574153;;;2.625;100.0
15558;BME280;7880;50.110;9.372;2023-01-16T12:50:03;2.5763439597154503;;;2.625;100.0
15558;BME280;7880;50.110;9.372;2023-01-16T12:55:04;2.510800020606257;;;2.625;100.0
15558;BME280;7880;50.110;9.372;2023-01-16T13:00:09;2.5309673812473195;;;2.562;100.0
15558;BME280;7880;50.110;9.372;2023-01-16T13:05:09;2.420046955347061;;;2.5;100.0
15558;BME280;7880;50.110;9.372;2023-01-16T13:09:43;2.556176588597009;;;2.562;100.0
15558;BME280;7880;50.110;9.372;2023-01-16T13:14:38;2.7376830963010432;;;2.75;100.0
15558;BME280;7880;50.110;9.372;2023-01-16T13:19:51;2.556176588597009;;;2.687;100.0
15558;BME280;7880;50.110;9.372;2023-01-16T13:24:50;2.6217205617576838;;;2.687;100.0
15558;BME280;7880;50.110;9.372;2023-01-16T13:29:54;2.646929795300821;;;2.812;100.0
15558;BME280;7880;50.110;9.372;2023-01-16T13:34:58;2.8435620666481554;;;2.875;100.0
15558;BME280;7880;50.110;9.372;2023-01-16T13:40:15;2.7780179270135705;;;2.875;100.0
15558;BME280;7880;50.110;9.372;2023-01-16T13:46:07;2.6771808851568495;;;2.812;100.0
15558;BME280;7880;50.110;9.372;2023-01-16T13:50:54;2.6771808851568495;;;2.812;100.0
15558;BME280;7880;50.110;9.372;2023-01-16T13:56:04;2.7981853493547533;;;2.812;100.0
15558;BME280;7880;50.110;9.372;2023-01-16T14:01:03;2.7477668022329453;;;2.812;100.0
15558;BME280;7880;50.110;9.372;2023-01-16T14:06:20;4.507391313300468;;;4.312;100.0
15558;BME280;7880;50.110;9.372;2023-01-16T14:11:40;3.1057391170412303;;;3.312;100.0
15558;BME280;7880;50.110;9.372;2023-01-16T14:17:00;2.8233946338295937;;;3.0;100.0
15558;BME280;7880;50.110;9.372;2023-01-16T14:24:01;2.8788550852856134;;;2.937;100.0
15558;BME280;7880;50.110;9.372;2023-01-16T14:28:48;2.904064393043518;;;3.0;100.0
15558;BME280;7880;50.110;9.372;2023-01-16T14:33:46;2.9292737080773805;;;3.0;100.0
15558;BME280;7880;50.110;9.372;2023-01-16T14:38:49;2.904064393043518;;;3.0;100.0
15558;BME280;7880;50.110;9.372;2023-01-16T14:57:41;3.0351529106730597;;;3.187;100.0
15558;BME280;7880;50.110;9.372;2023-01-16T15:02:46;3.025069171562791;;;3.187;100.0
15558;BME280;7880;50.110;9.372;2023-01-16T15:07:50;3.1006972432660405;;;3.187;100.0
15558;BME280;7880;50.110;9.372;2023-01-16T15:13:12;3.0906134965887757;;;3.187;100.0
15558;BME280;7880;50.110;9.372;2023-01-16T15:24:50;3.0099435650801754;;;3.125;100.0
15558;BME280;7880;50.110;9.372;2023-01-16T15:29:55;2.9595248957222795;;;3.125;100.0
15558;BME280;7880;50.110;9.372;2023-01-16T15:35:05;3.5595089486101643;;;3.562;100.0
15558;BME280;7880;50.110;9.372;2023-01-16T15:39:59;2.979692359972978;;;3.187;100.0
15558;BME280;7880;50.110;9.372;2023-01-16T15:51:54;2.752808655635454;;;2.875;100.0
15558;BME280;7880;50.110;9.372;2023-01-16T15:56:58;2.7780179270135705;;;2.875;100.0
15558;BME280;7880;50.110;9.372;2023-01-16T16:02:17;2.8082690622715747;;;2.875;100.0
15558;BME280;7880;50.110;9.372;2023-01-16T16:07:07;2.8133109191665424;;;2.875;100.0
15558;BME280;7880;50.110;9.372;2023-01-16T16:12:13;2.858687644317979;;;2.937;100.0
15558;BME280;7880;50.110;9.372;2023-01-16T16:18:26;2.9191899811907205;;;3.0;100.0
15558;BME280;7880;50.110;9.372;2023-01-16T16:23:11;2.9242318444885314;;;3.062;100.0
15558;BME280;7880;50.110;9.372;2023-01-16T16:28:19;2.914148118183948;;;3.062;100.0
15558;BME280;7880;50.110;9.372;2023-01-16T16:33:15;2.909106255468214;;;3.062;100.0
15558;BME280;7880;50.110;9.372;2023-01-16T16:38:24;2.9544830303872005;;;3.062;100.0
15558;BME280;7880;50.110;9.372;2023-01-16T16:43:41;3.0654041349887846;;;3.187;100.0
15558;BME280;7880;50.110;9.372;2023-01-16T16:48:28;3.0654041349887846;;;3.187;100.0
15558;BME280;7880;50.110;9.372;2023-01-16T16:53:32;3.1107809911074584;;;3.25;100.0
15558;BME280;7880;50.110;9.372;2023-01-16T16:58:40;3.1309484902827536;;;3.312;100.0
15558;BME280;7880;50.110;9.372;2023-01-16T17:03:40;3.1964928947621956;;;3.312;100.0
15558;BME280;7880;50.110;9.372;2023-01-16T17:08:43;3.1359903658041732;;;3.312;100.0
15558;BME280;7880;50.110;9.372;2023-01-16T17:13:47;3.2116185335500633;;;3.375;100.0
15558;BME280;7880;50.110;9.372;2023-01-16T17:18:57;3.1511159941146616;;;3.312;100.0
15558;BME280;7880;50.110;9.372;2023-01-16T17:23:57;3.201534774067113;;;3.312;100.0
15558;BME280;7880;50.110;9.372;2023-01-16T17:29:13;3.231786056008423;;;3.312;100.0
15558;BME280;7880;50.110;9.372;2023-01-16T17:34:09;3.1057391170412303;;;3.25;100.0
15558;BME280;7880;50.110;9.372;2023-01-16T17:39:12;3.1763253804529086;;;3.25;100.0
15558;BME280;7880;50.110;9.372;2023-01-16T17:51:09;3.0654041349887846;;;3.187;100.0
15558;BME280;7880;50.110;9.372;2023-01-16T17:56:17;3.0351529106730597;;;3.125;100.0
15558;BME280;7880;50.110;9.372;2023-01-16T18:01:18;2.9292737080773805;;;3.062;100.0
15558;BME280;7880;50.110;9.372;2023-01-16T18:06:20;2.9393574361281933;;;3.0;100.0
15558;BME280;7880;50.110;9.372;2023-01-16T18:18:21;2.858687644317979;;;3.0;100.0
15558;BME280;7880;50.110;9.372;2023-01-16T18:23:21;2.934315571957268;;;3.062;100.0
15558;BME280;7880;50.110;9.372;2023-01-16T18:27:55;3.0754878787556663;;;3.125;100.0
15558;BME280;7880;50.110;9.372;2023-01-16T18:32:57;3.020027302444214;;;3.125;100.0
15558;BME280;7880;50.110;9.372;2023-01-16T19:05:34;3.030111040972406;;;3.187;100.0
15558;BME280;7880;50.110;9.372;2023-01-16T19:10:32;2.969608627265552;;;3.125;100.0
15558;BME280;7880;50.110;9.372;2023-01-16T19:15:35;2.94944116534316;;;3.125;100.0
15558;BME280;7880;50.110;9.372;2023-01-16T19:20:39;2.989776093844557;;;3.125;100.0
15558;BME280;7880;50.110;9.372;2023-01-16T19:25:43;3.125906615052372;;;3.187;100.0
15558;BME280;7880;50.110;9.372;2023-01-16T19:30:55;2.9443993005901574;;;3.125;100.0
15558;BME280;7880;50.110;9.372;2023-01-16T19:35:57;2.909106255468214;;;3.062;100.0
15558;BME280;7880;50.110;9.372;2023-01-16T19:41:00;2.818352776352549;;;3.0;100.0
15558;BME280;7880;50.110;9.372;2023-01-16T19:47:05;2.742724949121475;;;2.875;100.0
15558;BME280;7880;50.110;9.372;2023-01-16T19:51:47;2.6771808851568495;;;2.875;100.0
15558;BME280;7880;50.110;9.372;2023-01-16T19:56:50;2.631804254301824;;;2.687;100.0
15558;BME280;7880;50.110;9.372;2023-01-16T20:01:55;2.5864276470209004;;;2.625;100.0
15558;BME280;7880;50.110;9.372;2023-01-16T20:07:06;2.3242521554289852;;;2.437;100.0
15558;BME280;7880;50.110;9.372;2023-01-16T20:12:38;2.2385411077179014;;;2.312;100.0
15558;BME280;7880;50.110;9.372;2023-01-16T20:17:18;2.3242521554289852;;;2.312;100.0
15558;BME280;7880;50.110;9.372;2023-01-16T20:22:22;2.107453785673715;;;2.187;100.0
15558;BME280;7880;50.110;9.372;2023-01-16T20:27:24;2.001575707650045;;;2.125;100.0
15558;BME280;7880;50.110;9.372;2023-01-16T20:32:29;2.0419101984298322;;;2.125;100.0
15558;BME280;7880;50.110;9.372;2023-01-16T20:37:33;2.0217429507116322;;;2.125;100.0
15558;BME280;7880;50.110;9.372;2023-01-16T20:49:37;2.193164704745868;;;2.25;100.0
15558;BME280;7880;50.110;9.372;2023-01-16T20:54:38;2.1982065261341632;;;2.312;100.0
15558;BME280;7880;50.110;9.372;2023-01-16T20:59:43;2.2587084054946898;;;2.375;100.0
15558;BME280;7880;50.110;9.372;2023-01-16T21:04:51;2.243582931725541;;;2.375;100.0
15558;BME280;7880;50.110;9.372;2023-01-16T21:09:56;2.2889593608910217;;;2.437;100.0
15558;BME280;7880;50.110;9.372;2023-01-16T21:14:57;2.334335813630605;;;2.437;100.0
15558;BME280;7880;50.110;9.372;2023-01-16T21:26:51;2.3696286265039816;;;2.5;100.0
15558;BME280;7880;50.110;9.372;2023-01-16T21:32:12;2.3393776431679725;;;2.5;100.0
15558;BME280;7880;50.110;9.372;2023-01-16T21:37:14;2.3645867952203843;;;2.5;100.0
15558;BME280;7880;50.110;9.372;2023-01-16T21:48:59;2.3595449642278252;;;2.5;100.0
15558;BME280;7880;50.110;9.372;2023-01-16T21:54:02;2.3242521554289852;;;2.562;100.0
15558;BME280;7880;50.110;9.372;2023-01-16T21:59:06;2.2940011878090445;;;2.5;100.0
15558;BME280;7880;50.110;9.372;2023-01-16T22:04:10;2.283917534264037;;;2.437;100.0
15558;BME280;7880;50.110;9.372;2023-01-16T22:09:15;2.2738338818831836;;;2.437;100.0
15558;BME280;7880;50.110;9.372;2023-01-16T22:21:12;2.334335813630605;;;2.5;100.0
15558;BME280;7880;50.110;9.372;2023-01-16T22:26:16;2.334335813630605;;;2.5;100.0
15558;BME280;7880;50.110;9.372;2023-01-16T22:31:23;2.3696286265039816;;;2.562;100.0
15558;BME280;7880;50.110;9.372;2023-01-16T22:36:25;2.334335813630605;;;2.5;100.0
15558;BME280;7880;50.110;9.372;2023-01-16T22:41:29;2.354503133526305;;;2.5;100.0
15558;BME280;7880;50.110;9.372;2023-01-16T22:46:33;2.39987962031737;;;2.562;100.0
15558;BME280;7880;50.110;9.372;2023-01-16T22:51:37;2.3242521554289852;;;2.5;100.0
15558;BME280;7880;50.110;9.372;2023-01-16T22:56:42;2.283917534264037;;;2.437;100.0
15558;BME280;7880;50.110;9.372;2023-01-16T23:01:53;2.2940011878090445;;;2.437;100.0
15558;BME280;7880;50.110;9.372;2023-01-16T23:06:50;2.2738338818831836;;;2.437;100.0
15558;BME280;7880;50.110;9.372;2023-01-16T23:11:59;2.2334992840013;;;2.437;100.0
15558;BME280;7880;50.110;9.372;2023-01-16T23:17:00;2.2536665806139355;;;2.437;100.0
15558;BME280;7880;50.110;9.372;2023-01-16T23:22:04;2.243582931725541;;;2.437;100.0
15558;BME280;7880;50.110;9.372;2023-01-16T23:27:07;2.2637502306664827;;;2.375;100.0
15558;BME280;7880;50.110;9.372;2023-01-16T23:32:10;2.2234156374412124;;;2.437;100.0
15558;BME280;7880;50.110;9.372;2023-01-16T23:37:13;2.2334992840013;;;2.375;100.0
15558;BME280;7880;50.110;9.372;2023-01-16T23:48:03;2.243582931725541;;;2.375;100.0
15558;BME280;7880;50.110;9.372;2023-01-16T23:53:06;2.2082901697838677;;;2.375;100.0
15558;BME280;7880;50.110;9.372;2023-01-16T23:58:10;2.2082901697838677;;;2.375;100.0
